sensor_id;sensor_type;location;lat;lon;timestamp;pressure;altitude;pressure_sealevel;temperature;humidity
61880;BME280;47817;52.798;27.544;2023-03-03T00:04:08;1022.3;;;3.2;77.6
61880;BME280;47817;52.798;27.544;2023-03-03T00:08:22;1022.2;;;3;78.3
61880;BME280;47817;52.798;27.544;2023-03-03T00:13:54;1022.2;;;3;78.7
61880;BME280;47817;52.798;27.544;2023-03-03T00:19:11;1022.2;;;2.9;79
61880;BME280;47817;52.798;27.544;2023-03-03T00:23:46;1022.1;;;2.7;79.5
61880;BME280;47817;52.798;27.544;2023-03-03T00:29:40;1022;;;2.6;80.2
61880;BME280;47817;52.798;27.544;2023-03-03T00:33:25;1022;;;2.4;80.8
61880;BME280;47817;52.798;27.544;2023-03-03T00:38:52;1021.9;;;2.3;81.3
61880;BME280;47817;52.798;27.544;2023-03-03T00:43:54;1022;;;2.2;82.1
61880;BME280;47817;52.798;27.544;2023-03-03T00:48:23;1021.9;;;2.2;82.4
61880;BME280;47817;52.798;27.544;2023-03-03T00:54:08;1021.8;;;2.1;83.3
61880;BME280;47817;52.798;27.544;2023-03-03T00:58:23;1021.8;;;2;83.9
61880;BME280;47817;52.798;27.544;2023-03-03T01:03:50;1021.7;;;2;83.8
61880;BME280;47817;52.798;27.544;2023-03-03T01:09:08;1021.6;;;1.9;84.3
61880;BME280;47817;52.798;27.544;2023-03-03T01:13:33;1021.5;;;1.9;84.8
61880;BME280;47817;52.798;27.544;2023-03-03T01:19:06;1021.5;;;1.9;84.7
61880;BME280;47817;52.798;27.544;2023-03-03T01:23:22;1021.5;;;1.9;85
61880;BME280;47817;52.798;27.544;2023-03-03T01:28:54;1021.4;;;1.8;85.2
61880;BME280;47817;52.798;27.544;2023-03-03T01:34:08;1021.3;;;1.8;85.3
61880;BME280;47817;52.798;27.544;2023-03-03T01:38:42;1021.2;;;1.8;85.7
61880;BME280;47817;52.798;27.544;2023-03-03T01:44:15;1021.2;;;1.7;85.9
61880;BME280;47817;52.798;27.544;2023-03-03T01:48:24;1021.1;;;1.7;86.1
61880;BME280;47817;52.798;27.544;2023-03-03T01:53:45;1021.1;;;1.7;86.3
61880;BME280;47817;52.798;27.544;2023-03-03T01:59:09;1021.1;;;1.7;86.4
61880;BME280;47817;52.798;27.544;2023-03-03T02:03:32;1021;;;1.7;86.8
61880;BME280;47817;52.798;27.544;2023-03-03T02:09:08;1021;;;1.7;86.7
61880;BME280;47817;52.798;27.544;2023-03-03T02:13:44;1021;;;1.7;86.8
61880;BME280;47817;52.798;27.544;2023-03-03T02:18:54;1020.9;;;1.6;87.1
61880;BME280;47817;52.798;27.544;2023-03-03T02:24:09;1021;;;1.6;87.3
61880;BME280;47817;52.798;27.544;2023-03-03T02:28:33;1020.9;;;1.6;87.6
61880;BME280;47817;52.798;27.544;2023-03-03T02:34:08;1020.9;;;1.6;87.6
61880;BME280;47817;52.798;27.544;2023-03-03T02:38:35;1020.8;;;1.6;87.8
61880;BME280;47817;52.798;27.544;2023-03-03T02:44:09;1020.7;;;1.6;87.8
61880;BME280;47817;52.798;27.544;2023-03-03T02:48:22;1020.6;;;1.6;87.8
61880;BME280;47817;52.798;27.544;2023-03-03T02:54:09;1020.5;;;1.6;87.8
61880;BME280;47817;52.798;27.544;2023-03-03T02:58:34;1020.4;;;1.5;87.8
61880;BME280;47817;52.798;27.544;2023-03-03T03:03:44;1020.4;;;1.5;87.8
61880;BME280;47817;52.798;27.544;2023-03-03T03:08:52;1020.4;;;1.5;87.9
61880;BME280;47817;52.798;27.544;2023-03-03T03:13:52;1020.3;;;1.4;88.4
61880;BME280;47817;52.798;27.544;2023-03-03T03:18:54;1020.2;;;1.5;88.3
61880;BME280;47817;52.798;27.544;2023-03-03T03:23:46;1020.2;;;1.5;88.4
61880;BME280;47817;52.798;27.544;2023-03-03T03:28:22;1020.2;;;1.5;88.3
61880;BME280;47817;52.798;27.544;2023-03-03T03:33:48;1020.2;;;1.4;88.4
61880;BME280;47817;52.798;27.544;2023-03-03T03:38:33;1020.1;;;1.4;88.5
61880;BME280;47817;52.798;27.544;2023-03-03T03:44:08;1020;;;1.4;88.5
61880;BME280;47817;52.798;27.544;2023-03-03T03:48:46;1019.8;;;1.4;88.5
61880;BME280;47817;52.798;27.544;2023-03-03T03:53:22;1019.6;;;1.3;88.7
61880;BME280;47817;52.798;27.544;2023-03-03T03:59:08;1019.5;;;1.3;88.7
61880;BME280;47817;52.798;27.544;2023-03-03T04:03:34;1019.5;;;1.3;88.9
61880;BME280;47817;52.798;27.544;2023-03-03T04:09:08;1019.3;;;1.3;89.1
61880;BME280;47817;52.798;27.544;2023-03-03T04:13:46;1019.3;;;1.2;89
61880;BME280;47817;52.798;27.544;2023-03-03T04:18:22;1019.2;;;1.2;89.1
61880;BME280;47817;52.798;27.544;2023-03-03T04:23:54;1019.1;;;1.1;89.2
61880;BME280;47817;52.798;27.544;2023-03-03T04:28:34;1019;;;1.1;89.3
61880;BME280;47817;52.798;27.544;2023-03-03T04:34:06;1019;;;1.1;89.4
61880;BME280;47817;52.798;27.544;2023-03-03T04:38:59;1018.9;;;1.1;89.3
61880;BME280;47817;52.798;27.544;2023-03-03T04:43:44;1018.9;;;1.1;89.4
61880;BME280;47817;52.798;27.544;2023-03-03T04:48:56;1018.9;;;1.1;89.5
61880;BME280;47817;52.798;27.544;2023-03-03T04:53:22;1019;;;1.1;89.4
61880;BME280;47817;52.798;27.544;2023-03-03T04:59:08;1019.1;;;1.1;89.4
61880;BME280;47817;52.798;27.544;2023-03-03T05:03:44;1019.1;;;1.1;89.4
61880;BME280;47817;52.798;27.544;2023-03-03T05:08:34;1019.1;;;1;89.5
61880;BME280;47817;52.798;27.544;2023-03-03T05:13:56;1019.1;;;1.1;89.2
61880;BME280;47817;52.798;27.544;2023-03-03T05:18:23;1019.1;;;1.1;89.2
61880;BME280;47817;52.798;27.544;2023-03-03T05:24:09;1019.1;;;1.2;89
61880;BME280;47817;52.798;27.544;2023-03-03T05:28:22;1019.1;;;1.2;88.8
61880;BME280;47817;52.798;27.544;2023-03-03T05:33:34;1018.9;;;1.3;88.4
61880;BME280;47817;52.798;27.544;2023-03-03T05:38:50;1018.9;;;1.3;88.1
61880;BME280;47817;52.798;27.544;2023-03-03T05:43:32;1018.9;;;1.4;87.7
61880;BME280;47817;52.798;27.544;2023-03-03T05:48:58;1018.8;;;1.6;87.3
61880;BME280;47817;52.798;27.544;2023-03-03T05:53:46;1019;;;1.7;86.6
61880;BME280;47817;52.798;27.544;2023-03-03T05:58:44;1019.1;;;1.7;86.3
61880;BME280;47817;52.798;27.544;2023-03-03T06:03:48;1019;;;1.8;85.9
61880;BME280;47817;52.798;27.544;2023-03-03T06:08:22;1018.7;;;2;85.5
61880;BME280;47817;52.798;27.544;2023-03-03T06:14:06;1018.6;;;2.1;84.9
61880;BME280;47817;52.798;27.544;2023-03-03T06:18:22;1018.6;;;2.1;84.1
61880;BME280;47817;52.798;27.544;2023-03-03T06:24:07;1018.7;;;2.2;83.5
61880;BME280;47817;52.798;27.544;2023-03-03T06:28:54;1018.6;;;2.3;83.1
61880;BME280;47817;52.798;27.544;2023-03-03T06:33:30;1018.6;;;2.5;82.4
61880;BME280;47817;52.798;27.544;2023-03-03T06:39:06;1018.6;;;2.6;81.8
61880;BME280;47817;52.798;27.544;2023-03-03T06:43:44;1018.7;;;2.7;81.2
61880;BME280;47817;52.798;27.544;2023-03-03T06:49:04;1018.7;;;2.9;80.6
61880;BME280;47817;52.798;27.544;2023-03-03T06:53:55;1018.7;;;2.9;80.2
61880;BME280;47817;52.798;27.544;2023-03-03T06:58:32;1018.7;;;3;79.7
61880;BME280;47817;52.798;27.544;2023-03-03T07:04:13;1018.7;;;3;79.1
61880;BME280;47817;52.798;27.544;2023-03-03T07:08:32;1018.7;;;3;78.6
61880;BME280;47817;52.798;27.544;2023-03-03T07:14:07;1018.6;;;3.1;78.3
61880;BME280;47817;52.798;27.544;2023-03-03T07:18:57;1018.6;;;3.2;77.9
61880;BME280;47817;52.798;27.544;2023-03-03T07:23:23;1018.5;;;3.4;77.5
61880;BME280;47817;52.798;27.544;2023-03-03T07:29:13;1018.6;;;3.5;77
61880;BME280;47817;52.798;27.544;2023-03-03T07:33:24;1018.6;;;3.7;76.4
61880;BME280;47817;52.798;27.544;2023-03-03T07:39:12;1018.5;;;3.9;75.6
61880;BME280;47817;52.798;27.544;2023-03-03T07:43:56;1018.5;;;4.2;74.1
61880;BME280;47817;52.798;27.544;2023-03-03T07:48:33;1018.4;;;4.2;72.7
61880;BME280;47817;52.798;27.544;2023-03-03T07:54:27;1018.2;;;4.1;71.8
61880;BME280;47817;52.798;27.544;2023-03-03T07:59:12;1018.1;;;4;71.1
61880;BME280;47817;52.798;27.544;2023-03-03T08:04:15;1018.1;;;4;71
61880;BME280;47817;52.798;27.544;2023-03-03T08:08:52;1018;;;4.3;70.5
61880;BME280;47817;52.798;27.544;2023-03-03T08:13:35;1017.9;;;4.5;69.8
61880;BME280;47817;52.798;27.544;2023-03-03T08:19:08;1018.1;;;4.6;69.3
61880;BME280;47817;52.798;27.544;2023-03-03T08:23:30;1018.1;;;4.6;68.5
61880;BME280;47817;52.798;27.544;2023-03-03T08:29:02;1018;;;4.7;68.3
61880;BME280;47817;52.798;27.544;2023-03-03T08:33:52;1018.2;;;4.8;68
61880;BME280;47817;52.798;27.544;2023-03-03T08:38:35;1018.2;;;4.9;67.6
61880;BME280;47817;52.798;27.544;2023-03-03T08:44:06;1018.3;;;5;67.1
61880;BME280;47817;52.798;27.544;2023-03-03T08:48:42;1018.2;;;5.1;66.7
61880;BME280;47817;52.798;27.544;2023-03-03T08:54:06;1018.1;;;5.2;66.7
61880;BME280;47817;52.798;27.544;2023-03-03T08:58:54;1018;;;5.2;66.3
61880;BME280;47817;52.798;27.544;2023-03-03T09:03:50;1017.9;;;5.2;66.3
61880;BME280;47817;52.798;27.544;2023-03-03T09:09:08;1018;;;5.1;66.4
61880;BME280;47817;52.798;27.544;2023-03-03T09:13:44;1018.2;;;4.9;67.3
61880;BME280;47817;52.798;27.544;2023-03-03T09:19:18;1018.2;;;4.8;68.1
61880;BME280;47817;52.798;27.544;2023-03-03T09:23:34;1018.2;;;4.8;68.2
61880;BME280;47817;52.798;27.544;2023-03-03T09:28:23;1018.1;;;4.8;68.3
61880;BME280;47817;52.798;27.544;2023-03-03T09:34:15;1018.2;;;4.9;68.3
61880;BME280;47817;52.798;27.544;2023-03-03T09:38:34;1018.3;;;4.8;68.3
61880;BME280;47817;52.798;27.544;2023-03-03T09:44:11;1018.4;;;4.5;68.8
61880;BME280;47817;52.798;27.544;2023-03-03T09:48:57;1018.3;;;4.5;69.4
61880;BME280;47817;52.798;27.544;2023-03-03T09:53:34;1018.2;;;4.7;68.9
61880;BME280;47817;52.798;27.544;2023-03-03T09:59:09;1018.2;;;4.7;69.2
61880;BME280;47817;52.798;27.544;2023-03-03T10:03:48;1018.1;;;4.7;69.2
61880;BME280;47817;52.798;27.544;2023-03-03T10:09:12;1018;;;5;68.8
61880;BME280;47817;52.798;27.544;2023-03-03T10:13:58;1018;;;5.4;67.3
61880;BME280;47817;52.798;27.544;2023-03-03T10:18:34;1018;;;5.4;66.5
61880;BME280;47817;52.798;27.544;2023-03-03T10:23:55;1018;;;5.6;66.1
61880;BME280;47817;52.798;27.544;2023-03-03T10:29:43;1018;;;5.6;65.2
61880;BME280;47817;52.798;27.544;2023-03-03T10:34:06;1018.2;;;5.5;64.8
61880;BME280;47817;52.798;27.544;2023-03-03T10:38:56;1018.1;;;5.1;65.4
61880;BME280;47817;52.798;27.544;2023-03-03T10:43:24;1018;;;5;65
61880;BME280;47817;52.798;27.544;2023-03-03T10:48:48;1017.9;;;5;65.2
61880;BME280;47817;52.798;27.544;2023-03-03T10:53:37;1017.9;;;4.7;65.7
61880;BME280;47817;52.798;27.544;2023-03-03T10:59:11;1017.8;;;4.7;66.1
61880;BME280;47817;52.798;27.544;2023-03-03T11:04:24;1017.7;;;4.5;66.6
61880;BME280;47817;52.798;27.544;2023-03-03T11:08:25;1017.8;;;4.4;66.7
61880;BME280;47817;52.798;27.544;2023-03-03T11:13:53;1017.7;;;4.1;67.5
61880;BME280;47817;52.798;27.544;2023-03-03T11:18:47;1017.6;;;4.4;67.3
61880;BME280;47817;52.798;27.544;2023-03-03T11:24:11;1017.7;;;4.4;67.2
61880;BME280;47817;52.798;27.544;2023-03-03T11:28:57;1017.6;;;4.4;66.8
61880;BME280;47817;52.798;27.544;2023-03-03T11:33:33;1017.7;;;4.3;66.5
61880;BME280;47817;52.798;27.544;2023-03-03T11:38:53;1017.7;;;4.2;66.8
61880;BME280;47817;52.798;27.544;2023-03-03T11:43:43;1017.6;;;4.1;67
61880;BME280;47817;52.798;27.544;2023-03-03T11:49:05;1017.6;;;4.3;66.5
61880;BME280;47817;52.798;27.544;2023-03-03T11:53:43;1017.6;;;4.3;66.2
61880;BME280;47817;52.798;27.544;2023-03-03T11:58:24;1017.6;;;4.3;66.4
61880;BME280;47817;52.798;27.544;2023-03-03T12:03:55;1017.5;;;4.3;66.3
61880;BME280;47817;52.798;27.544;2023-03-03T12:08:27;1017.5;;;4.3;66.2
61880;BME280;47817;52.798;27.544;2023-03-03T12:13:51;1017.5;;;4.5;65.7
61880;BME280;47817;52.798;27.544;2023-03-03T12:18:57;1017.4;;;4.6;65.4
61880;BME280;47817;52.798;27.544;2023-03-03T12:23:37;1017.4;;;4.8;64.9
61880;BME280;47817;52.798;27.544;2023-03-03T12:28:53;1017.4;;;4.8;64.7
61880;BME280;47817;52.798;27.544;2023-03-03T12:33:26;1017.4;;;4.8;64.2
61880;BME280;47817;52.798;27.544;2023-03-03T12:39:10;1017.2;;;4.8;63.9
61880;BME280;47817;52.798;27.544;2023-03-03T12:43:39;1017.2;;;5;63.6
61880;BME280;47817;52.798;27.544;2023-03-03T12:48:35;1017.3;;;5.2;62.6
61880;BME280;47817;52.798;27.544;2023-03-03T12:53:48;1017.3;;;5.1;62.4
61880;BME280;47817;52.798;27.544;2023-03-03T12:58:45;1017.2;;;5;63
61880;BME280;47817;52.798;27.544;2023-03-03T13:04:10;1017.2;;;4.8;63.9
61880;BME280;47817;52.798;27.544;2023-03-03T13:08:57;1017.2;;;4.6;64.3
61880;BME280;47817;52.798;27.544;2023-03-03T13:13:36;1017.3;;;4.3;65.2
61880;BME280;47817;52.798;27.544;2023-03-03T13:18:56;1017.3;;;4.1;66.1
61880;BME280;47817;52.798;27.544;2023-03-03T13:23:35;1017.3;;;4;66.9
61880;BME280;47817;52.798;27.544;2023-03-03T13:29:08;1017.3;;;3.9;67.7
61880;BME280;47817;52.798;27.544;2023-03-03T13:33:55;1017.3;;;3.8;67.9
61880;BME280;47817;52.798;27.544;2023-03-03T13:38:24;1017.3;;;3.7;68.5
61880;BME280;47817;52.798;27.544;2023-03-03T13:43:56;1017.3;;;3.7;68.7
61880;BME280;47817;52.798;27.544;2023-03-03T13:48:36;1017.5;;;3.7;68.7
61880;BME280;47817;52.798;27.544;2023-03-03T13:54:12;1017.3;;;3.7;68.4
61880;BME280;47817;52.798;27.544;2023-03-03T13:58:56;1017.3;;;3.7;68.1
61880;BME280;47817;52.798;27.544;2023-03-03T14:03:39;1017.3;;;3.7;68.7
61880;BME280;47817;52.798;27.544;2023-03-03T14:08:54;1017.2;;;3.7;69
61880;BME280;47817;52.798;27.544;2023-03-03T14:13:34;1017;;;3.7;68.7
61880;BME280;47817;52.798;27.544;2023-03-03T14:19:10;1016.9;;;3.8;68.2
61880;BME280;47817;52.798;27.544;2023-03-03T14:23:47;1016.9;;;4;67.8
61880;BME280;47817;52.798;27.544;2023-03-03T14:28:23;1016.8;;;4.2;67.3
61880;BME280;47817;52.798;27.544;2023-03-03T14:34:12;1016.7;;;4.4;67.1
61880;BME280;47817;52.798;27.544;2023-03-03T14:38:45;1016.7;;;4.4;66.6
61880;BME280;47817;52.798;27.544;2023-03-03T14:43:57;1016.7;;;4.6;66.4
61880;BME280;47817;52.798;27.544;2023-03-03T14:48:35;1016.6;;;6;63.8
61880;BME280;47817;52.798;27.544;2023-03-03T14:53:29;1016.5;;;8.8;57.1
61880;BME280;47817;52.798;27.544;2023-03-03T14:59:15;1016.5;;;10.3;52.6
61880;BME280;47817;52.798;27.544;2023-03-03T15:03:33;1016.4;;;10.6;50.6
61880;BME280;47817;52.798;27.544;2023-03-03T15:08:55;1016.4;;;10.7;49.4
61880;BME280;47817;52.798;27.544;2023-03-03T15:13:34;1016.3;;;10.5;49
61880;BME280;47817;52.798;27.544;2023-03-03T15:18:23;1016.2;;;10.8;48.2
61880;BME280;47817;52.798;27.544;2023-03-03T15:24:09;1016.2;;;10.4;48.1
61880;BME280;47817;52.798;27.544;2023-03-03T15:28:26;1016.2;;;10.4;48
61880;BME280;47817;52.798;27.544;2023-03-03T15:34:17;1016.2;;;9.8;48.5
61880;BME280;47817;52.798;27.544;2023-03-03T15:38:46;1016.3;;;8;51.1
61880;BME280;47817;52.798;27.544;2023-03-03T15:43:35;1016.4;;;6.5;54.1
61880;BME280;47817;52.798;27.544;2023-03-03T15:49:12;1016.4;;;5.6;56.1
61880;BME280;47817;52.798;27.544;2023-03-03T15:53:50;1016.4;;;4.9;58.1
61880;BME280;47817;52.798;27.544;2023-03-03T15:58:52;1016.4;;;4.4;60
61880;BME280;47817;52.798;27.544;2023-03-03T16:03:45;1016.4;;;4.1;61.6
61880;BME280;47817;52.798;27.544;2023-03-03T16:08:24;1016.5;;;3.9;63
61880;BME280;47817;52.798;27.544;2023-03-03T16:14:12;1016.5;;;3.8;64.2
61880;BME280;47817;52.798;27.544;2023-03-03T16:18:48;1016.4;;;3.6;65.3
61880;BME280;47817;52.798;27.544;2023-03-03T16:23:55;1016.4;;;3.4;66.1
61880;BME280;47817;52.798;27.544;2023-03-03T16:28:24;1016.4;;;3.3;66.7
61880;BME280;47817;52.798;27.544;2023-03-03T16:33:25;1016.4;;;3.1;67.3
61880;BME280;47817;52.798;27.544;2023-03-03T16:39:08;1016.4;;;3;68.2
61880;BME280;47817;52.798;27.544;2023-03-03T16:43:45;1016.4;;;3;68.5
61880;BME280;47817;52.798;27.544;2023-03-03T16:48:59;1016.5;;;3;69
61880;BME280;47817;52.798;27.544;2023-03-03T16:53:25;1016.4;;;3.1;68.9
61880;BME280;47817;52.798;27.544;2023-03-03T16:58:39;1016.4;;;3.1;69.1
61880;BME280;47817;52.798;27.544;2023-03-03T17:04:09;1016.5;;;3.2;69.1
61880;BME280;47817;52.798;27.544;2023-03-03T17:08:57;1016.5;;;3.1;69.5
61880;BME280;47817;52.798;27.544;2023-03-03T17:14:03;1016.5;;;2.9;70.2
61880;BME280;47817;52.798;27.544;2023-03-03T17:18:24;1016.4;;;2.8;70.6
61880;BME280;47817;52.798;27.544;2023-03-03T17:23:26;1016.4;;;2.7;71
61880;BME280;47817;52.798;27.544;2023-03-03T17:28:58;1016.4;;;2.6;71.5
61880;BME280;47817;52.798;27.544;2023-03-03T17:33:48;1016.4;;;2.5;72.3
61880;BME280;47817;52.798;27.544;2023-03-03T17:38:46;1016.4;;;2.5;72.6
61880;BME280;47817;52.798;27.544;2023-03-03T17:43:46;1016.4;;;2.5;72.8
61880;BME280;47817;52.798;27.544;2023-03-03T17:48:57;1016.5;;;2.4;73.3
61880;BME280;47817;52.798;27.544;2023-03-03T17:54:15;1016.5;;;2.4;73.8
61880;BME280;47817;52.798;27.544;2023-03-03T17:59:07;1016.5;;;2.4;74.2
61880;BME280;47817;52.798;27.544;2023-03-03T18:04:00;1016.5;;;2.4;74.5
61880;BME280;47817;52.798;27.544;2023-03-03T18:08:45;1016.5;;;2.5;74.7
61880;BME280;47817;52.798;27.544;2023-03-03T18:13:41;1016.4;;;2.3;75.1
61880;BME280;47817;52.798;27.544;2023-03-03T18:19:11;1016.4;;;2.3;75.6
61880;BME280;47817;52.798;27.544;2023-03-03T18:23:34;1016.4;;;2.3;76
61880;BME280;47817;52.798;27.544;2023-03-03T18:29:12;1016.5;;;2.4;75.8
61880;BME280;47817;52.798;27.544;2023-03-03T18:34:07;1016.7;;;2.5;75.5
61880;BME280;47817;52.798;27.544;2023-03-03T18:38:43;1016.5;;;2.6;76.2
61880;BME280;47817;52.798;27.544;2023-03-03T18:43:56;1016.4;;;2.5;76.8
61880;BME280;47817;52.798;27.544;2023-03-03T18:48:42;1016.4;;;2.3;77
61880;BME280;47817;52.798;27.544;2023-03-03T18:54:19;1016.4;;;2.2;77.6
61880;BME280;47817;52.798;27.544;2023-03-03T18:59:09;1016.4;;;2.1;77.6
61880;BME280;47817;52.798;27.544;2023-03-03T19:03:32;1016.5;;;2.1;77.7
61880;BME280;47817;52.798;27.544;2023-03-03T19:08:23;1016.5;;;2.1;77.6
61880;BME280;47817;52.798;27.544;2023-03-03T19:13:43;1016.4;;;2.1;77.7
61880;BME280;47817;52.798;27.544;2023-03-03T19:19:10;1016.3;;;2;78.1
61880;BME280;47817;52.798;27.544;2023-03-03T19:23:48;1016.3;;;2;78.4
61880;BME280;47817;52.798;27.544;2023-03-03T19:28:56;1016.1;;;2.1;79.1
61880;BME280;47817;52.798;27.544;2023-03-03T19:33:38;1016;;;2.1;79.1
61880;BME280;47817;52.798;27.544;2023-03-03T19:38:25;1016;;;2.1;79.2
61880;BME280;47817;52.798;27.544;2023-03-03T19:44:12;1016;;;2.2;79.4
61880;BME280;47817;52.798;27.544;2023-03-03T19:49:00;1016;;;2.3;79.5
61880;BME280;47817;52.798;27.544;2023-03-03T19:53:39;1016;;;2.3;80
61880;BME280;47817;52.798;27.544;2023-03-03T19:58:24;1016;;;2.3;80.3
61880;BME280;47817;52.798;27.544;2023-03-03T20:03:49;1015.9;;;2.3;80.3
61880;BME280;47817;52.798;27.544;2023-03-03T20:09:07;1015.9;;;2.4;80.2
61880;BME280;47817;52.798;27.544;2023-03-03T20:13:59;1015.8;;;2.4;80.2
61880;BME280;47817;52.798;27.544;2023-03-03T20:18:41;1015.8;;;2.5;80.1
61880;BME280;47817;52.798;27.544;2023-03-03T20:23:45;1015.7;;;2.5;79.9
61880;BME280;47817;52.798;27.544;2023-03-03T20:28:37;1015.7;;;2.6;79.9
61880;BME280;47817;52.798;27.544;2023-03-03T20:34:08;1015.6;;;2.7;79.7
61880;BME280;47817;52.798;27.544;2023-03-03T20:39:01;1015.6;;;2.6;79.7
61880;BME280;47817;52.798;27.544;2023-03-03T20:43:26;1015.5;;;2.5;80
61880;BME280;47817;52.798;27.544;2023-03-03T20:48:34;1015.5;;;2.4;80.4
61880;BME280;47817;52.798;27.544;2023-03-03T20:54:11;1015.6;;;2.3;80.9
61880;BME280;47817;52.798;27.544;2023-03-03T20:59:13;1015.5;;;2.3;81.1
61880;BME280;47817;52.798;27.544;2023-03-03T21:04:15;1015.5;;;2.4;81.2
61880;BME280;47817;52.798;27.544;2023-03-03T21:08:39;1015.5;;;2.3;81.4
61880;BME280;47817;52.798;27.544;2023-03-03T21:13:43;1015.5;;;2.2;81.6
61880;BME280;47817;52.798;27.544;2023-03-03T21:18:35;1015.3;;;2.1;81.8
61880;BME280;47817;52.798;27.544;2023-03-03T21:24:09;1015.2;;;2.1;82.1
61880;BME280;47817;52.798;27.544;2023-03-03T21:28:59;1015.2;;;2.1;82.1
61880;BME280;47817;52.798;27.544;2023-03-03T21:33:39;1015.2;;;2.1;82.1
61880;BME280;47817;52.798;27.544;2023-03-03T21:38:43;1015.1;;;2.1;82.1
61880;BME280;47817;52.798;27.544;2023-03-03T21:43:33;1015;;;2;82.3
61880;BME280;47817;52.798;27.544;2023-03-03T21:49:07;1014.9;;;2;82.7
61880;BME280;47817;52.798;27.544;2023-03-03T21:53:59;1014.8;;;2;82.4
61880;BME280;47817;52.798;27.544;2023-03-03T21:58:23;1014.8;;;1.9;82.8
61880;BME280;47817;52.798;27.544;2023-03-03T22:03:43;1014.7;;;1.9;82.8
61880;BME280;47817;52.798;27.544;2023-03-03T22:08:23;1014.7;;;1.9;82.9
61880;BME280;47817;52.798;27.544;2023-03-03T22:14:09;1014.6;;;1.9;82.8
61880;BME280;47817;52.798;27.544;2023-03-03T22:18:59;1014.6;;;1.9;83
61880;BME280;47817;52.798;27.544;2023-03-03T22:23:43;1014.7;;;1.8;83.1
61880;BME280;47817;52.798;27.544;2023-03-03T22:28:33;1014.7;;;2;83
61880;BME280;47817;52.798;27.544;2023-03-03T22:33:43;1014.7;;;2.1;82.7
61880;BME280;47817;52.798;27.544;2023-03-03T22:39:07;1014.7;;;2.2;82.5
61880;BME280;47817;52.798;27.544;2023-03-03T22:43:59;1014.6;;;2.2;82.3
61880;BME280;47817;52.798;27.544;2023-03-03T22:49:09;1014.4;;;2.2;82.3
61880;BME280;47817;52.798;27.544;2023-03-03T22:53:31;1014.4;;;2.3;82.2
61880;BME280;47817;52.798;27.544;2023-03-03T22:58:43;1014.3;;;2.3;82.2
61880;BME280;47817;52.798;27.544;2023-03-03T23:03:59;1014.3;;;2.3;82.3
61880;BME280;47817;52.798;27.544;2023-03-03T23:08:59;1014.2;;;2.4;82.2
61880;BME280;47817;52.798;27.544;2023-03-03T23:14:09;1014.1;;;2.4;82
61880;BME280;47817;52.798;27.544;2023-03-03T23:18:23;1014.1;;;2.3;82
61880;BME280;47817;52.798;27.544;2023-03-03T23:23:31;1014.1;;;2.3;81.9
61880;BME280;47817;52.798;27.544;2023-03-03T23:29:07;1013.9;;;2.3;81.7
61880;BME280;47817;52.798;27.544;2023-03-03T23:33:57;1013.8;;;2.4;81.4
61880;BME280;47817;52.798;27.544;2023-03-03T23:38:57;1013.8;;;2.4;81.2
61880;BME280;47817;52.798;27.544;2023-03-03T23:43:39;1013.8;;;2.4;81.1
61880;BME280;47817;52.798;27.544;2023-03-03T23:48:41;1013.7;;;2.4;80.9
61880;BME280;47817;52.798;27.544;2023-03-03T23:54:05;1013.6;;;2.3;80.9
61880;BME280;47817;52.798;27.544;2023-03-03T23:58:55;1013.5;;;2.3;80.7
